Cheikh El Mokrani — C6WD5 — position and weather

sailwx.info

Track history (hours):
 
Tides and Currents Weather Stations Pressure Air Temp Water Temp Dewpoint Dewpoint Depression Visibility Wind Speed Wind Dir Waves Ship Positions

Cheikh El Mokrani

Last reported at 2014-Oct-26 03:33 UTC. Time now 2014-Oct-26 04:26 UTC.
Position N 51°34' E 001°48'.

Length 220 m; draft 9.7 m.

Type: Ship (hazmat cat D). MMSI: 309979000.

Date/timePositionNaut miles runAvg speedWind from/ knotsBaromVisibWave heightAir tempDewpointWater temp
2014-Oct-26 03:33N 51°34' E 001°48'0 0.3
2014-Oct-26 02:33N 51°34' E 001°48'1 1.0
2014-Oct-26 01:33N 51°34' E 001°50'2 1.6
2014-Oct-26 00:34N 51°34' E 001°47'1 1.0
2014-Oct-25 23:33N 51°33' E 001°46'2 1.6
2014-Oct-25 22:33N 51°32' E 001°47'2 1.9
2014-Oct-25 21:33N 51°30' E 001°46'2 2.1
2014-Oct-25 20:34N 51°28' E 001°47'3 3.1
2014-Oct-25 19:33N 51°25' E 001°46'5 4.8
2014-Oct-25 18:33N 51°20' E 001°43'6 6.2
2014-Oct-25 17:33N 51°15' E 001°40'7 7.0
2014-Oct-25 16:33N 51°08' E 001°41'1413.7
2014-Oct-25 15:34N 50°56' E 001°28'3014.6
2014-Oct-25 13:31N 50°32' E 001°01'  
2014-Oct-23 03:06N 41°19' W 009°57'2314.6
2014-Oct-23 01:30N 40°56' W 009°57'1614.6
2014-Oct-23 00:24N 40°40' W 009°57'8414.4
2014-Oct-22 18:33N 39°15' W 009°57'1414.1
2014-Oct-22 17:33N 39°01' W 009°57'1414.5
2014-Oct-22 16:33N 38°47' W 009°57'1514.5
2014-Oct-22 15:33N 38°32' W 009°54'1515.1
2014-Oct-22 14:33N 38°17' W 009°50'1515.2
2014-Oct-22 13:33N 38°03' W 009°46'1515.1
2014-Oct-22 12:33N 37°48' W 009°41'1514.8
2014-Oct-22 11:33N 37°34' W 009°37'1515.3
2014-Oct-22 10:33N 37°19' W 009°32'1616.1
2014-Oct-22 09:33N 37°03' W 009°28'1615.9
2014-Oct-22 08:33N 36°48' W 009°21'1615.5
2014-Oct-22 07:33N 36°39' W 009°05'1716.6
2014-Oct-22 06:33N 36°34' W 008°46'1716.8
2014-Oct-22 05:33N 36°30' W 008°26'1717.1
2014-Oct-22 04:33N 36°25' W 008°05'1717.2
2014-Oct-22 03:32N 36°20' W 007°44'1717.3
2014-Oct-22 02:32N 36°15' W 007°24'8917.2
2014-Oct-21 21:22N 35°58' W 005°36'1113.1
2014-Oct-21 20:34N 36°02' W 005°24'5 4.8
2014-Oct-21 19:31N 36°07' W 005°22'0 0.1
2014-Oct-21 18:31N 36°07' W 005°22'0 0.1
2014-Oct-21 17:25N 36°06' W 005°22'0 0.1
2014-Oct-21 16:31N 36°06' W 005°22'0 0.0
2014-Oct-21 15:28N 36°06' W 005°22'0 0.0
2014-Oct-21 14:31N 36°06' W 005°22'1 0.9
2014-Oct-21 13:33N 36°05' W 005°21'10 8.9
2014-Oct-21 12:25N 36°05' W 005°09'0 0.3
2014-Oct-21 11:33N 36°05' W 005°09'0 0.4
2014-Oct-21 10:29N 36°06' W 005°09'1 0.7
2014-Oct-21 09:33N 36°06' W 005°10'0 0.5
2014-Oct-21 08:33N 36°05' W 005°10'0 0.4
2014-Oct-21 07:34N 36°06' W 005°10'1 0.1
2014-Oct-21 03:25N 36°06' W 005°10'15513.9
2014-Oct-20 16:13N 36°08' W 001°57'1215.9
2014-Oct-20 15:29N 36°07' W 001°43'2016.0
2014-Oct-20 14:15N 36°07' W 001°19'1216.9
2014-Oct-20 13:33N 36°07' W 001°04'1716.8
2014-Oct-20 12:32N 36°06' W 000°43'  
2014-Oct-18 07:20N 36°23' E 000°27'1 1.7
2014-Oct-18 06:32N 36°22' E 000°25'2 1.9
2014-Oct-18 05:30N 36°21' E 000°24'3 0.4
2014-Oct-17 22:13N 36°20' E 000°20'1 1.5
2014-Oct-17 21:27N 36°19' E 000°19'1 0.9
2014-Oct-17 20:33N 36°19' E 000°19'1 0.7
2014-Oct-17 18:33N 36°18' E 000°18'1 1.1
2014-Oct-17 17:26N 36°18' E 000°16'2 0.6
2014-Oct-17 13:16N 36°16' E 000°14'14 1.6
2014-Oct-17 04:28N 36°22' W 000°02'1814.0
2014-Oct-17 03:11N 36°39' E 000°04'913.9
2014-Oct-17 02:31N 36°48' E 000°07'1313.8
2014-Oct-17 01:32N 37°01' E 000°12'1413.9
2014-Oct-17 00:33N 37°14' E 000°17'1514.1
2014-Oct-16 23:29N 37°29' E 000°22'1814.3
2014-Oct-16 22:15N 37°46' E 000°28'1014.6
2014-Oct-16 21:34N 37°56' E 000°32'1716.4
2014-Oct-16 20:33N 38°11' E 000°38'2015.6
2014-Oct-16 19:15N 38°31' E 000°45'5514.8
2014-Oct-16 15:33N 39°20' E 001°16'1515.0
2014-Oct-16 14:33N 39°32' E 001°27'1515.3
2014-Oct-16 13:33N 39°44' E 001°40'1515.2
2014-Oct-16 12:33N 39°56' E 001°52'1515.1
2014-Oct-16 11:33N 40°08' E 002°04'1515.2
2014-Oct-16 10:34N 40°20' E 002°16'1515.3
2014-Oct-16 09:34N 40°32' E 002°28'1615.5
2014-Oct-16 08:33N 40°45' E 002°41'1616.0
2014-Oct-16 07:33N 40°57' E 002°53'1716.7
2014-Oct-16 06:34N 41°10' E 003°07'1817.7
2014-Oct-16 05:34N 41°25' E 003°21'  
Track history (hours):
 
Tides and Currents Weather Stations Pressure Air Temp Water Temp Dewpoint Dewpoint Depression Visibility Wind Speed Wind Dir Waves Ship Positions

Cheikh El Mokrani

Last reported at 2014-Oct-26 03:33 UTC. Time now 2014-Oct-26 04:26 UTC.
Position N 51°34' E 001°48'.

Length 220 m; draft 9.7 m.

Type: Ship (hazmat cat D). MMSI: 309979000.

Date/timePositionNaut miles runAvg speedWind from/ knotsBaromVisibWave heightAir tempDewpointWater temp
2014-Oct-26 03:33N 51°34' E 001°48'0 0.3
2014-Oct-26 02:33N 51°34' E 001°48'1 1.0
2014-Oct-26 01:33N 51°34' E 001°50'2 1.6
2014-Oct-26 00:34N 51°34' E 001°47'1 1.0
2014-Oct-25 23:33N 51°33' E 001°46'2 1.6
2014-Oct-25 22:33N 51°32' E 001°47'2 1.9
2014-Oct-25 21:33N 51°30' E 001°46'2 2.1
2014-Oct-25 20:34N 51°28' E 001°47'3 3.1
2014-Oct-25 19:33N 51°25' E 001°46'5 4.8
2014-Oct-25 18:33N 51°20' E 001°43'6 6.2
2014-Oct-25 17:33N 51°15' E 001°40'7 7.0
2014-Oct-25 16:33N 51°08' E 001°41'1413.7
2014-Oct-25 15:34N 50°56' E 001°28'3014.6
2014-Oct-25 13:31N 50°32' E 001°01'  
2014-Oct-23 03:06N 41°19' W 009°57'2314.6
2014-Oct-23 01:30N 40°56' W 009°57'1614.6
2014-Oct-23 00:24N 40°40' W 009°57'8414.4
2014-Oct-22 18:33N 39°15' W 009°57'1414.1
2014-Oct-22 17:33N 39°01' W 009°57'1414.5
2014-Oct-22 16:33N 38°47' W 009°57'1514.5
2014-Oct-22 15:33N 38°32' W 009°54'1515.1
2014-Oct-22 14:33N 38°17' W 009°50'1515.2
2014-Oct-22 13:33N 38°03' W 009°46'1515.1
2014-Oct-22 12:33N 37°48' W 009°41'1514.8
2014-Oct-22 11:33N 37°34' W 009°37'1515.3
2014-Oct-22 10:33N 37°19' W 009°32'1616.1
2014-Oct-22 09:33N 37°03' W 009°28'1615.9
2014-Oct-22 08:33N 36°48' W 009°21'1615.5
2014-Oct-22 07:33N 36°39' W 009°05'1716.6
2014-Oct-22 06:33N 36°34' W 008°46'1716.8
2014-Oct-22 05:33N 36°30' W 008°26'1717.1
2014-Oct-22 04:33N 36°25' W 008°05'1717.2
2014-Oct-22 03:32N 36°20' W 007°44'1717.3
2014-Oct-22 02:32N 36°15' W 007°24'8917.2
2014-Oct-21 21:22N 35°58' W 005°36'1113.1
2014-Oct-21 20:34N 36°02' W 005°24'5 4.8
2014-Oct-21 19:31N 36°07' W 005°22'0 0.1
2014-Oct-21 18:31N 36°07' W 005°22'0 0.1
2014-Oct-21 17:25N 36°06' W 005°22'0 0.1
2014-Oct-21 16:31N 36°06' W 005°22'0 0.0
2014-Oct-21 15:28N 36°06' W 005°22'0 0.0
2014-Oct-21 14:31N 36°06' W 005°22'1 0.9
2014-Oct-21 13:33N 36°05' W 005°21'10 8.9
2014-Oct-21 12:25N 36°05' W 005°09'0 0.3
2014-Oct-21 11:33N 36°05' W 005°09'0 0.4
2014-Oct-21 10:29N 36°06' W 005°09'1 0.7
2014-Oct-21 09:33N 36°06' W 005°10'0 0.5
2014-Oct-21 08:33N 36°05' W 005°10'0 0.4
2014-Oct-21 07:34N 36°06' W 005°10'1 0.1
2014-Oct-21 03:25N 36°06' W 005°10'15513.9
2014-Oct-20 16:13N 36°08' W 001°57'1215.9
2014-Oct-20 15:29N 36°07' W 001°43'2016.0
2014-Oct-20 14:15N 36°07' W 001°19'1216.9
2014-Oct-20 13:33N 36°07' W 001°04'1716.8
2014-Oct-20 12:32N 36°06' W 000°43'  
2014-Oct-18 07:20N 36°23' E 000°27'1 1.7
2014-Oct-18 06:32N 36°22' E 000°25'2 1.9
2014-Oct-18 05:30N 36°21' E 000°24'3 0.4
2014-Oct-17 22:13N 36°20' E 000°20'1 1.5
2014-Oct-17 21:27N 36°19' E 000°19'1 0.9
2014-Oct-17 20:33N 36°19' E 000°19'1 0.7
2014-Oct-17 18:33N 36°18' E 000°18'1 1.1
2014-Oct-17 17:26N 36°18' E 000°16'2 0.6
2014-Oct-17 13:16N 36°16' E 000°14'14 1.6
2014-Oct-17 04:28N 36°22' W 000°02'1814.0
2014-Oct-17 03:11N 36°39' E 000°04'913.9
2014-Oct-17 02:31N 36°48' E 000°07'1313.8
2014-Oct-17 01:32N 37°01' E 000°12'1413.9
2014-Oct-17 00:33N 37°14' E 000°17'1514.1
2014-Oct-16 23:29N 37°29' E 000°22'1814.3
2014-Oct-16 22:15N 37°46' E 000°28'1014.6
2014-Oct-16 21:34N 37°56' E 000°32'1716.4
2014-Oct-16 20:33N 38°11' E 000°38'2015.6
2014-Oct-16 19:15N 38°31' E 000°45'5514.8
2014-Oct-16 15:33N 39°20' E 001°16'1515.0
2014-Oct-16 14:33N 39°32' E 001°27'1515.3
2014-Oct-16 13:33N 39°44' E 001°40'1515.2
2014-Oct-16 12:33N 39°56' E 001°52'1515.1
2014-Oct-16 11:33N 40°08' E 002°04'1515.2
2014-Oct-16 10:34N 40°20' E 002°16'1515.3
2014-Oct-16 09:34N 40°32' E 002°28'1615.5
2014-Oct-16 08:33N 40°45' E 002°41'1616.0
2014-Oct-16 07:33N 40°57' E 002°53'1716.7
2014-Oct-16 06:34N 41°10' E 003°07'1817.7
2014-Oct-16 05:34N 41°25' E 003°21'  

Dump ship's entire track history